sensor_id;sensor_type;location;lat;lon;timestamp;P1;durP1;ratioP1;P2;durP2;ratioP2
25129;SDS011;13308;50.860;13.664;2023-05-10T05:14:42;2.47;;;2.22;;
25129;SDS011;13308;50.860;13.664;2023-05-10T05:17:07;2.85;;;2.40;;
25129;SDS011;13308;50.860;13.664;2023-05-10T05:19:33;2.78;;;2.58;;
25129;SDS011;13308;50.860;13.664;2023-05-10T05:21:58;2.85;;;2.60;;
25129;SDS011;13308;50.860;13.664;2023-05-10T05:24:23;5.07;;;2.50;;
25129;SDS011;13308;50.860;13.664;2023-05-10T05:26:49;4.03;;;2.58;;
25129;SDS011;13308;50.860;13.664;2023-05-10T05:29:14;2.90;;;2.70;;
25129;SDS011;13308;50.860;13.664;2023-05-10T05:31:39;2.50;;;2.30;;
25129;SDS011;13308;50.860;13.664;2023-05-10T05:34:05;2.92;;;2.65;;
25129;SDS011;13308;50.860;13.664;2023-05-10T05:36:30;3.20;;;2.90;;
25129;SDS011;13308;50.860;13.664;2023-05-10T05:38:56;2.65;;;2.45;;
25129;SDS011;13308;50.860;13.664;2023-05-10T05:41:22;3.13;;;2.70;;
25129;SDS011;13308;50.860;13.664;2023-05-10T05:43:48;2.78;;;2.30;;
25129;SDS011;13308;50.860;13.664;2023-05-10T05:46:14;3.90;;;2.53;;
25129;SDS011;13308;50.860;13.664;2023-05-10T05:48:39;2.85;;;2.63;;
25129;SDS011;13308;50.860;13.664;2023-05-10T05:51:04;4.05;;;2.90;;
25129;SDS011;13308;50.860;13.664;2023-05-10T05:53:30;3.75;;;2.60;;
25129;SDS011;13308;50.860;13.664;2023-05-10T05:55:56;2.97;;;2.65;;
25129;SDS011;13308;50.860;13.664;2023-05-10T05:58:22;3.53;;;2.65;;
25129;SDS011;13308;50.860;13.664;2023-05-10T06:00:49;4.70;;;2.60;;
25129;SDS011;13308;50.860;13.664;2023-05-10T06:03:15;2.65;;;2.45;;
25129;SDS011;13308;50.860;13.664;2023-05-10T06:05:40;3.25;;;2.65;;
25129;SDS011;13308;50.860;13.664;2023-05-10T06:08:06;3.00;;;2.72;;
25129;SDS011;13308;50.860;13.664;2023-05-10T06:10:31;2.60;;;2.40;;
25129;SDS011;13308;50.860;13.664;2023-05-10T06:12:56;2.83;;;2.60;;
25129;SDS011;13308;50.860;13.664;2023-05-10T06:15:22;2.40;;;2.20;;
25129;SDS011;13308;50.860;13.664;2023-05-10T06:17:47;2.55;;;2.35;;
25129;SDS011;13308;50.860;13.664;2023-05-10T06:20:14;2.63;;;2.42;;
25129;SDS011;13308;50.860;13.664;2023-05-10T06:22:40;2.50;;;2.30;;
25129;SDS011;13308;50.860;13.664;2023-05-10T06:25:05;6.38;;;2.50;;
25129;SDS011;13308;50.860;13.664;2023-05-10T06:27:31;3.33;;;3.03;;
25129;SDS011;13308;50.860;13.664;2023-05-10T06:29:56;3.17;;;2.45;;
25129;SDS011;13308;50.860;13.664;2023-05-10T06:32:21;2.90;;;2.58;;
25129;SDS011;13308;50.860;13.664;2023-05-10T06:34:47;7.53;;;2.78;;
25129;SDS011;13308;50.860;13.664;2023-05-10T06:37:12;2.78;;;2.30;;
25129;SDS011;13308;50.860;13.664;2023-05-10T06:39:37;4.85;;;3.55;;
25129;SDS011;13308;50.860;13.664;2023-05-10T06:42:03;3.60;;;2.55;;
25129;SDS011;13308;50.860;13.664;2023-05-10T06:44:31;3.10;;;2.80;;
25129;SDS011;13308;50.860;13.664;2023-05-10T06:46:56;3.58;;;2.67;;
25129;SDS011;13308;50.860;13.664;2023-05-10T06:49:22;2.78;;;2.53;;
25129;SDS011;13308;50.860;13.664;2023-05-10T06:51:47;3.75;;;3.45;;
25129;SDS011;13308;50.860;13.664;2023-05-10T06:54:13;3.45;;;3.15;;
25129;SDS011;13308;50.860;13.664;2023-05-10T06:56:38;2.70;;;2.50;;
25129;SDS011;13308;50.860;13.664;2023-05-10T06:59:04;3.38;;;3.08;;
25129;SDS011;13308;50.860;13.664;2023-05-10T07:01:29;3.03;;;2.60;;
25129;SDS011;13308;50.860;13.664;2023-05-10T07:03:54;2.75;;;2.55;;
25129;SDS011;13308;50.860;13.664;2023-05-10T07:06:20;2.75;;;2.42;;
25129;SDS011;13308;50.860;13.664;2023-05-10T07:08:45;3.13;;;2.55;;
25129;SDS011;13308;50.860;13.664;2023-05-10T07:11:11;4.78;;;2.75;;
25129;SDS011;13308;50.860;13.664;2023-05-10T07:13:36;3.47;;;2.95;;
25129;SDS011;13308;50.860;13.664;2023-05-10T07:16:04;3.35;;;3.05;;
25129;SDS011;13308;50.860;13.664;2023-05-10T07:18:31;2.85;;;2.58;;
25129;SDS011;13308;50.860;13.664;2023-05-10T07:20:56;3.53;;;2.60;;
25129;SDS011;13308;50.860;13.664;2023-05-10T07:23:22;3.30;;;3.00;;
25129;SDS011;13308;50.860;13.664;2023-05-10T07:25:48;2.92;;;2.40;;
25129;SDS011;13308;50.860;13.664;2023-05-10T07:28:14;4.28;;;2.53;;
25129;SDS011;13308;50.860;13.664;2023-05-10T07:30:41;5.30;;;2.85;;
25129;SDS011;13308;50.860;13.664;2023-05-10T07:33:07;3.53;;;2.28;;
25129;SDS011;13308;50.860;13.664;2023-05-10T07:35:34;2.22;;;2.10;;
25129;SDS011;13308;50.860;13.664;2023-05-10T07:38:00;3.30;;;3.00;;
25129;SDS011;13308;50.860;13.664;2023-05-10T07:40:25;2.63;;;2.42;;
25129;SDS011;13308;50.860;13.664;2023-05-10T07:42:51;2.95;;;2.75;;
25129;SDS011;13308;50.860;13.664;2023-05-10T07:45:17;3.05;;;2.75;;
25129;SDS011;13308;50.860;13.664;2023-05-10T07:47:43;2.75;;;2.55;;
25129;SDS011;13308;50.860;13.664;2023-05-10T07:50:08;3.00;;;2.72;;
25129;SDS011;13308;50.860;13.664;2023-05-10T07:52:33;2.80;;;2.60;;
25129;SDS011;13308;50.860;13.664;2023-05-10T07:54:59;4.38;;;2.50;;
25129;SDS011;13308;50.860;13.664;2023-05-10T07:57:24;3.08;;;2.78;;
25129;SDS011;13308;50.860;13.664;2023-05-10T07:59:49;2.88;;;2.63;;
25129;SDS011;13308;50.860;13.664;2023-05-10T08:02:15;3.25;;;2.95;;
25129;SDS011;13308;50.860;13.664;2023-05-10T08:04:40;3.35;;;3.03;;
25129;SDS011;13308;50.860;13.664;2023-05-10T08:07:05;3.70;;;2.78;;
25129;SDS011;13308;50.860;13.664;2023-05-10T08:09:31;4.75;;;2.60;;
25129;SDS011;13308;50.860;13.664;2023-05-10T08:11:56;4.15;;;2.55;;
25129;SDS011;13308;50.860;13.664;2023-05-10T08:14:21;4.45;;;2.55;;
25129;SDS011;13308;50.860;13.664;2023-05-10T08:16:47;2.95;;;2.75;;
25129;SDS011;13308;50.860;13.664;2023-05-10T08:19:12;7.10;;;3.40;;
25129;SDS011;13308;50.860;13.664;2023-05-10T08:21:37;3.15;;;2.85;;
25129;SDS011;13308;50.860;13.664;2023-05-10T08:24:03;2.80;;;2.60;;
25129;SDS011;13308;50.860;13.664;2023-05-10T08:26:28;3.25;;;2.95;;
25129;SDS011;13308;50.860;13.664;2023-05-10T08:28:54;3.10;;;2.80;;
25129;SDS011;13308;50.860;13.664;2023-05-10T08:31:19;3.00;;;2.80;;
25129;SDS011;13308;50.860;13.664;2023-05-10T08:33:44;3.17;;;2.88;;
25129;SDS011;13308;50.860;13.664;2023-05-10T08:36:10;2.88;;;2.60;;
25129;SDS011;13308;50.860;13.664;2023-05-10T08:38:36;3.30;;;3.10;;
25129;SDS011;13308;50.860;13.664;2023-05-10T08:41:02;4.30;;;2.78;;
25129;SDS011;13308;50.860;13.664;2023-05-10T08:43:28;3.58;;;3.00;;
25129;SDS011;13308;50.860;13.664;2023-05-10T08:45:54;3.80;;;2.90;;
25129;SDS011;13308;50.860;13.664;2023-05-10T08:48:22;3.42;;;3.05;;
25129;SDS011;13308;50.860;13.664;2023-05-10T08:50:48;3.35;;;3.05;;
25129;SDS011;13308;50.860;13.664;2023-05-10T08:53:17;3.30;;;3.00;;
25129;SDS011;13308;50.860;13.664;2023-05-10T08:55:44;5.25;;;2.72;;
25129;SDS011;13308;50.860;13.664;2023-05-10T08:58:09;3.38;;;3.08;;
25129;SDS011;13308;50.860;13.664;2023-05-10T09:00:35;4.00;;;3.50;;
25129;SDS011;13308;50.860;13.664;2023-05-10T09:03:04;8.02;;;6.50;;
25129;SDS011;13308;50.860;13.664;2023-05-10T09:05:31;5.45;;;4.85;;
25129;SDS011;13308;50.860;13.664;2023-05-10T09:07:56;7.00;;;5.43;;
25129;SDS011;13308;50.860;13.664;2023-05-10T09:10:23;9.25;;;6.35;;
25129;SDS011;13308;50.860;13.664;2023-05-10T09:12:51;3.55;;;3.25;;
25129;SDS011;13308;50.860;13.664;2023-05-10T09:15:18;31.67;;;17.17;;
25129;SDS011;13308;50.860;13.664;2023-05-10T09:17:44;17.35;;;11.32;;
25129;SDS011;13308;50.860;13.664;2023-05-10T09:20:11;42.78;;;24.27;;
25129;SDS011;13308;50.860;13.664;2023-05-10T09:22:36;38.35;;;25.80;;
25129;SDS011;13308;50.860;13.664;2023-05-10T09:25:06;53.28;;;18.83;;
25129;SDS011;13308;50.860;13.664;2023-05-10T09:27:36;20.67;;;12.18;;
25129;SDS011;13308;50.860;13.664;2023-05-10T09:30:05;17.20;;;10.25;;
25129;SDS011;13308;50.860;13.664;2023-05-10T09:32:36;4.00;;;3.67;;
25129;SDS011;13308;50.860;13.664;2023-05-10T09:35:15;29.27;;;18.27;;
25129;SDS011;13308;50.860;13.664;2023-05-10T09:37:45;5.35;;;4.75;;
25129;SDS011;13308;50.860;13.664;2023-05-10T09:40:13;4.03;;;3.72;;
25129;SDS011;13308;50.860;13.664;2023-05-10T09:43:00;11.98;;;7.28;;
25129;SDS011;13308;50.860;13.664;2023-05-10T09:45:27;6.20;;;4.75;;
25129;SDS011;13308;50.860;13.664;2023-05-10T09:47:55;5.80;;;5.20;;
25129;SDS011;13308;50.860;13.664;2023-05-10T09:50:21;32.05;;;20.05;;
25129;SDS011;13308;50.860;13.664;2023-05-10T09:55:26;7.75;;;4.95;;
25129;SDS011;13308;50.860;13.664;2023-05-10T09:58:03;9.25;;;8.02;;
25129;SDS011;13308;50.860;13.664;2023-05-10T10:00:35;4.80;;;4.07;;
25129;SDS011;13308;50.860;13.664;2023-05-10T10:03:02;3.78;;;3.40;;
25129;SDS011;13308;50.860;13.664;2023-05-10T10:05:28;5.20;;;4.47;;
25129;SDS011;13308;50.860;13.664;2023-05-10T10:07:55;4.65;;;4.25;;
25129;SDS011;13308;50.860;13.664;2023-05-10T10:10:21;4.63;;;4.22;;
25129;SDS011;13308;50.860;13.664;2023-05-10T10:12:47;4.47;;;3.97;;
25129;SDS011;13308;50.860;13.664;2023-05-10T10:15:12;4.72;;;4.32;;
25129;SDS011;13308;50.860;13.664;2023-05-10T10:17:38;4.03;;;3.33;;
25129;SDS011;13308;50.860;13.664;2023-05-10T10:20:04;4.18;;;3.75;;
25129;SDS011;13308;50.860;13.664;2023-05-10T10:22:30;3.88;;;3.47;;
25129;SDS011;13308;50.860;13.664;2023-05-10T10:24:56;3.95;;;3.55;;
25129;SDS011;13308;50.860;13.664;2023-05-10T10:27:31;4.30;;;3.90;;
25129;SDS011;13308;50.860;13.664;2023-05-10T10:32:42;4.15;;;3.78;;
25129;SDS011;13308;50.860;13.664;2023-05-10T10:35:20;4.93;;;4.43;;
25129;SDS011;13308;50.860;13.664;2023-05-10T10:37:47;4.50;;;4.10;;
25129;SDS011;13308;50.860;13.664;2023-05-10T10:40:24;5.50;;;4.93;;
25129;SDS011;13308;50.860;13.664;2023-05-10T10:42:51;4.50;;;4.10;;
25129;SDS011;13308;50.860;13.664;2023-05-10T10:45:18;4.75;;;4.05;;
25129;SDS011;13308;50.860;13.664;2023-05-10T10:47:44;5.63;;;3.80;;
25129;SDS011;13308;50.860;13.664;2023-05-10T10:50:10;10.65;;;8.68;;
25129;SDS011;13308;50.860;13.664;2023-05-10T10:52:41;5.43;;;4.40;;
25129;SDS011;13308;50.860;13.664;2023-05-10T11:00:22;3.60;;;3.25;;
25129;SDS011;13308;50.860;13.664;2023-05-10T11:03:11;5.38;;;4.88;;
25129;SDS011;13308;50.860;13.664;2023-05-10T11:05:49;4.05;;;3.75;;
25129;SDS011;13308;50.860;13.664;2023-05-10T11:08:27;4.68;;;3.75;;
25129;SDS011;13308;50.860;13.664;2023-05-10T11:16:10;4.35;;;3.95;;
25129;SDS011;13308;50.860;13.664;2023-05-10T11:18:58;13.18;;;9.15;;
25129;SDS011;13308;50.860;13.664;2023-05-10T11:21:25;4.90;;;4.47;;
25129;SDS011;13308;50.860;13.664;2023-05-10T11:23:57;4.65;;;4.25;;
25129;SDS011;13308;50.860;13.664;2023-05-10T11:26:25;5.35;;;4.35;;
25129;SDS011;13308;50.860;13.664;2023-05-10T11:28:54;5.13;;;4.32;;
25129;SDS011;13308;50.860;13.664;2023-05-10T11:31:20;4.40;;;4.00;;
25129;SDS011;13308;50.860;13.664;2023-05-10T11:33:50;6.35;;;4.20;;
25129;SDS011;13308;50.860;13.664;2023-05-10T11:36:27;3.97;;;3.67;;
25129;SDS011;13308;50.860;13.664;2023-05-10T11:38:54;4.50;;;4.10;;
25129;SDS011;13308;50.860;13.664;2023-05-10T11:41:21;4.57;;;4.18;;
25129;SDS011;13308;50.860;13.664;2023-05-10T11:43:49;4.45;;;4.00;;
25129;SDS011;13308;50.860;13.664;2023-05-10T11:46:16;5.22;;;4.38;;
25129;SDS011;13308;50.860;13.664;2023-05-10T11:48:45;4.18;;;3.65;;
25129;SDS011;13308;50.860;13.664;2023-05-10T11:51:11;4.47;;;3.83;;
25129;SDS011;13308;50.860;13.664;2023-05-10T11:53:36;4.72;;;4.22;;
25129;SDS011;13308;50.860;13.664;2023-05-10T11:56:06;4.60;;;4.20;;
25129;SDS011;13308;50.860;13.664;2023-05-10T11:58:33;10.50;;;4.40;;
25129;SDS011;13308;50.860;13.664;2023-05-10T12:00:59;4.95;;;4.45;;
25129;SDS011;13308;50.860;13.664;2023-05-10T12:03:26;4.45;;;4.05;;
25129;SDS011;13308;50.860;13.664;2023-05-10T12:05:52;4.63;;;4.22;;
25129;SDS011;13308;50.860;13.664;2023-05-10T12:08:21;5.05;;;3.95;;
25129;SDS011;13308;50.860;13.664;2023-05-10T12:10:48;4.38;;;3.97;;
25129;SDS011;13308;50.860;13.664;2023-05-10T12:13:14;4.45;;;4.05;;
25129;SDS011;13308;50.860;13.664;2023-05-10T12:15:40;4.45;;;4.05;;
25129;SDS011;13308;50.860;13.664;2023-05-10T12:18:07;5.28;;;4.47;;
25129;SDS011;13308;50.860;13.664;2023-05-10T12:20:35;4.75;;;4.32;;
25129;SDS011;13308;50.860;13.664;2023-05-10T12:23:00;5.07;;;4.60;;
25129;SDS011;13308;50.860;13.664;2023-05-10T12:25:32;4.25;;;3.85;;
25129;SDS011;13308;50.860;13.664;2023-05-10T12:27:59;4.78;;;4.22;;
25129;SDS011;13308;50.860;13.664;2023-05-10T12:30:28;8.57;;;5.90;;
25129;SDS011;13308;50.860;13.664;2023-05-10T12:35:44;4.93;;;4.25;;
25129;SDS011;13308;50.860;13.664;2023-05-10T12:38:29;4.72;;;4.25;;
25129;SDS011;13308;50.860;13.664;2023-05-10T12:41:01;5.80;;;5.22;;
25129;SDS011;13308;50.860;13.664;2023-05-10T12:43:28;5.50;;;4.32;;
25129;SDS011;13308;50.860;13.664;2023-05-10T12:45:54;5.20;;;4.70;;
25129;SDS011;13308;50.860;13.664;2023-05-10T12:48:20;5.50;;;5.00;;
25129;SDS011;13308;50.860;13.664;2023-05-10T12:50:45;6.53;;;4.82;;
25129;SDS011;13308;50.860;13.664;2023-05-10T12:53:11;4.47;;;4.07;;
25129;SDS011;13308;50.860;13.664;2023-05-10T12:55:38;5.03;;;4.53;;
25129;SDS011;13308;50.860;13.664;2023-05-10T12:58:04;6.90;;;5.13;;
25129;SDS011;13308;50.860;13.664;2023-05-10T13:00:29;5.22;;;4.72;;
25129;SDS011;13308;50.860;13.664;2023-05-10T13:02:54;4.72;;;4.32;;
25129;SDS011;13308;50.860;13.664;2023-05-10T13:05:20;4.30;;;3.90;;
25129;SDS011;13308;50.860;13.664;2023-05-10T13:07:45;4.55;;;4.18;;
25129;SDS011;13308;50.860;13.664;2023-05-10T13:10:10;6.95;;;4.38;;
25129;SDS011;13308;50.860;13.664;2023-05-10T13:12:36;5.40;;;5.00;;
25129;SDS011;13308;50.860;13.664;2023-05-10T13:15:02;4.80;;;4.40;;
25129;SDS011;13308;50.860;13.664;2023-05-10T13:17:28;4.43;;;4.03;;
25129;SDS011;13308;50.860;13.664;2023-05-10T13:19:53;5.30;;;4.80;;
25129;SDS011;13308;50.860;13.664;2023-05-10T13:22:19;5.63;;;5.13;;
25129;SDS011;13308;50.860;13.664;2023-05-10T13:24:44;6.95;;;6.35;;
25129;SDS011;13308;50.860;13.664;2023-05-10T13:27:09;6.35;;;4.97;;
25129;SDS011;13308;50.860;13.664;2023-05-10T13:29:35;4.90;;;4.50;;
25129;SDS011;13308;50.860;13.664;2023-05-10T13:32:00;5.75;;;5.28;;
25129;SDS011;13308;50.860;13.664;2023-05-10T13:34:26;5.90;;;5.18;;
25129;SDS011;13308;50.860;13.664;2023-05-10T13:36:51;6.28;;;4.85;;
25129;SDS011;13308;50.860;13.664;2023-05-10T13:39:17;4.65;;;4.25;;
25129;SDS011;13308;50.860;13.664;2023-05-10T13:41:43;6.40;;;4.60;;
25129;SDS011;13308;50.860;13.664;2023-05-10T13:44:08;6.50;;;4.50;;
25129;SDS011;13308;50.860;13.664;2023-05-10T13:46:33;5.00;;;4.50;;
25129;SDS011;13308;50.860;13.664;2023-05-10T13:48:59;6.88;;;4.47;;
25129;SDS011;13308;50.860;13.664;2023-05-10T13:51:24;5.22;;;4.72;;
25129;SDS011;13308;50.860;13.664;2023-05-10T13:53:49;5.15;;;4.65;;
25129;SDS011;13308;50.860;13.664;2023-05-10T13:56:15;4.60;;;4.20;;
25129;SDS011;13308;50.860;13.664;2023-05-10T13:58:40;4.80;;;4.32;;
25129;SDS011;13308;50.860;13.664;2023-05-10T14:01:06;5.82;;;4.00;;
25129;SDS011;13308;50.860;13.664;2023-05-10T14:03:31;4.40;;;4.10;;
25129;SDS011;13308;50.860;13.664;2023-05-10T14:05:57;4.25;;;3.85;;
25129;SDS011;13308;50.860;13.664;2023-05-10T14:08:22;4.00;;;3.60;;
25129;SDS011;13308;50.860;13.664;2023-05-10T14:10:48;4.43;;;4.03;;
25129;SDS011;13308;50.860;13.664;2023-05-10T14:13:14;5.65;;;5.15;;
25129;SDS011;13308;50.860;13.664;2023-05-10T14:15:40;4.75;;;4.35;;
25129;SDS011;13308;50.860;13.664;2023-05-10T14:18:05;4.70;;;4.30;;
25129;SDS011;13308;50.860;13.664;2023-05-10T14:20:31;6.38;;;4.75;;
25129;SDS011;13308;50.860;13.664;2023-05-10T14:22:58;9.05;;;4.72;;
25129;SDS011;13308;50.860;13.664;2023-05-10T14:25:24;4.90;;;4.40;;
25129;SDS011;13308;50.860;13.664;2023-05-10T14:27:50;5.10;;;4.60;;
25129;SDS011;13308;50.860;13.664;2023-05-10T14:30:15;6.43;;;5.18;;
25129;SDS011;13308;50.860;13.664;2023-05-10T14:32:41;5.97;;;4.20;;
25129;SDS011;13308;50.860;13.664;2023-05-10T14:35:06;5.40;;;4.68;;
25129;SDS011;13308;50.860;13.664;2023-05-10T14:37:32;6.65;;;4.75;;
25129;SDS011;13308;50.860;13.664;2023-05-10T14:39:58;7.03;;;5.57;;
25129;SDS011;13308;50.860;13.664;2023-05-10T14:42:23;7.78;;;5.13;;
25129;SDS011;13308;50.860;13.664;2023-05-10T14:44:48;7.20;;;6.15;;
25129;SDS011;13308;50.860;13.664;2023-05-10T14:47:14;6.47;;;5.88;;
25129;SDS011;13308;50.860;13.664;2023-05-10T14:49:39;6.15;;;5.55;;
25129;SDS011;13308;50.860;13.664;2023-05-10T14:52:05;6.88;;;5.25;;
25129;SDS011;13308;50.860;13.664;2023-05-10T14:54:30;6.47;;;5.72;;
25129;SDS011;13308;50.860;13.664;2023-05-10T14:56:58;5.57;;;5.13;;
25129;SDS011;13308;50.860;13.664;2023-05-10T14:59:23;7.78;;;5.97;;
25129;SDS011;13308;50.860;13.664;2023-05-10T15:01:49;5.65;;;5.15;;
25129;SDS011;13308;50.860;13.664;2023-05-10T15:04:14;5.65;;;4.55;;
25129;SDS011;13308;50.860;13.664;2023-05-10T15:06:41;5.20;;;4.70;;
25129;SDS011;13308;50.860;13.664;2023-05-10T15:09:06;10.75;;;5.47;;
25129;SDS011;13308;50.860;13.664;2023-05-10T15:11:32;5.93;;;4.68;;
25129;SDS011;13308;50.860;13.664;2023-05-10T15:13:57;6.85;;;4.40;;
25129;SDS011;13308;50.860;13.664;2023-05-10T15:16:22;5.65;;;5.13;;
25129;SDS011;13308;50.860;13.664;2023-05-10T15:18:48;5.80;;;5.22;;
25129;SDS011;13308;50.860;13.664;2023-05-10T15:21:13;5.28;;;4.85;;
25129;SDS011;13308;50.860;13.664;2023-05-10T15:23:38;8.32;;;5.55;;
25129;SDS011;13308;50.860;13.664;2023-05-10T15:26:04;8.05;;;5.10;;
25129;SDS011;13308;50.860;13.664;2023-05-10T15:28:29;5.68;;;5.18;;
25129;SDS011;13308;50.860;13.664;2023-05-10T15:30:55;6.53;;;5.22;;
25129;SDS011;13308;50.860;13.664;2023-05-10T15:33:21;7.38;;;5.22;;
25129;SDS011;13308;50.860;13.664;2023-05-10T15:35:46;5.85;;;5.28;;
25129;SDS011;13308;50.860;13.664;2023-05-10T15:38:12;6.13;;;5.40;;
25129;SDS011;13308;50.860;13.664;2023-05-10T15:40:37;5.60;;;5.10;;
25129;SDS011;13308;50.860;13.664;2023-05-10T15:43:03;6.72;;;4.63;;
25129;SDS011;13308;50.860;13.664;2023-05-10T15:45:30;6.20;;;4.32;;
25129;SDS011;13308;50.860;13.664;2023-05-10T15:47:55;4.35;;;3.95;;
25129;SDS011;13308;50.860;13.664;2023-05-10T15:50:20;5.60;;;5.10;;
25129;SDS011;13308;50.860;13.664;2023-05-10T15:52:46;5.10;;;4.60;;
25129;SDS011;13308;50.860;13.664;2023-05-10T15:55:11;4.68;;;4.28;;
25129;SDS011;13308;50.860;13.664;2023-05-10T15:57:40;5.30;;;4.80;;
25129;SDS011;13308;50.860;13.664;2023-05-10T16:00:06;5.15;;;4.65;;
25129;SDS011;13308;50.860;13.664;2023-05-10T16:02:37;5.75;;;4.25;;
25129;SDS011;13308;50.860;13.664;2023-05-10T16:05:03;4.45;;;4.00;;
25129;SDS011;13308;50.860;13.664;2023-05-10T16:07:29;5.43;;;4.80;;
25129;SDS011;13308;50.860;13.664;2023-05-10T16:09:54;4.80;;;4.40;;
25129;SDS011;13308;50.860;13.664;2023-05-10T16:12:20;4.47;;;4.07;;
25129;SDS011;13308;50.860;13.664;2023-05-10T16:14:45;5.20;;;4.50;;
25129;SDS011;13308;50.860;13.664;2023-05-10T16:17:11;6.88;;;4.78;;
25129;SDS011;13308;50.860;13.664;2023-05-10T16:19:36;5.93;;;4.90;;
25129;SDS011;13308;50.860;13.664;2023-05-10T16:22:02;5.00;;;4.50;;
25129;SDS011;13308;50.860;13.664;2023-05-10T16:24:27;4.63;;;4.22;;
25129;SDS011;13308;50.860;13.664;2023-05-10T16:26:53;6.45;;;4.90;;
25129;SDS011;13308;50.860;13.664;2023-05-10T16:29:18;6.18;;;4.40;;
25129;SDS011;13308;50.860;13.664;2023-05-10T16:31:43;5.00;;;4.20;;
25129;SDS011;13308;50.860;13.664;2023-05-10T16:34:09;4.45;;;4.05;;
25129;SDS011;13308;50.860;13.664;2023-05-10T16:36:34;5.20;;;4.45;;
25129;SDS011;13308;50.860;13.664;2023-05-10T16:38:59;5.60;;;4.60;;
25129;SDS011;13308;50.860;13.664;2023-05-10T16:41:25;5.05;;;4.40;;
25129;SDS011;13308;50.860;13.664;2023-05-10T16:43:50;4.90;;;4.40;;
25129;SDS011;13308;50.860;13.664;2023-05-10T16:46:16;4.43;;;4.00;;
25129;SDS011;13308;50.860;13.664;2023-05-10T16:48:41;4.70;;;4.10;;
25129;SDS011;13308;50.860;13.664;2023-05-10T16:51:07;4.95;;;4.43;;
25129;SDS011;13308;50.860;13.664;2023-05-10T16:53:32;4.93;;;4.43;;
25129;SDS011;13308;50.860;13.664;2023-05-10T16:55:58;4.25;;;3.85;;
25129;SDS011;13308;50.860;13.664;2023-05-10T16:58:23;6.05;;;4.63;;
25129;SDS011;13308;50.860;13.664;2023-05-10T17:00:48;5.20;;;4.40;;
25129;SDS011;13308;50.860;13.664;2023-05-10T17:03:14;5.63;;;5.13;;
25129;SDS011;13308;50.860;13.664;2023-05-10T17:05:39;4.45;;;4.05;;
25129;SDS011;13308;50.860;13.664;2023-05-10T17:08:04;5.00;;;4.35;;
25129;SDS011;13308;50.860;13.664;2023-05-10T17:10:30;5.05;;;4.63;;
25129;SDS011;13308;50.860;13.664;2023-05-10T17:12:56;4.80;;;4.30;;
25129;SDS011;13308;50.860;13.664;2023-05-10T17:15:21;5.03;;;4.45;;
25129;SDS011;13308;50.860;13.664;2023-05-10T17:17:47;5.22;;;4.82;;
25129;SDS011;13308;50.860;13.664;2023-05-10T17:20:12;5.07;;;4.20;;
25129;SDS011;13308;50.860;13.664;2023-05-10T17:22:37;4.15;;;3.75;;
25129;SDS011;13308;50.860;13.664;2023-05-10T17:25:03;4.63;;;4.22;;
25129;SDS011;13308;50.860;13.664;2023-05-10T17:27:28;4.43;;;4.03;;
25129;SDS011;13308;50.860;13.664;2023-05-10T17:29:56;5.30;;;4.43;;
25129;SDS011;13308;50.860;13.664;2023-05-10T17:32:22;4.35;;;3.75;;
25129;SDS011;13308;50.860;13.664;2023-05-10T17:34:48;4.55;;;4.15;;
25129;SDS011;13308;50.860;13.664;2023-05-10T17:37:13;7.70;;;4.25;;
25129;SDS011;13308;50.860;13.664;2023-05-10T17:39:38;5.80;;;5.05;;
25129;SDS011;13308;50.860;13.664;2023-05-10T17:42:03;6.20;;;5.03;;
25129;SDS011;13308;50.860;13.664;2023-05-10T17:44:29;5.72;;;5.22;;
25129;SDS011;13308;50.860;13.664;2023-05-10T17:46:54;5.82;;;5.22;;
25129;SDS011;13308;50.860;13.664;2023-05-10T17:49:20;6.55;;;5.93;;
25129;SDS011;13308;50.860;13.664;2023-05-10T17:51:45;6.60;;;5.47;;
25129;SDS011;13308;50.860;13.664;2023-05-10T17:54:13;6.03;;;5.15;;
25129;SDS011;13308;50.860;13.664;2023-05-10T17:56:39;8.20;;;6.07;;
25129;SDS011;13308;50.860;13.664;2023-05-10T17:59:05;7.10;;;5.88;;
25129;SDS011;13308;50.860;13.664;2023-05-10T18:01:30;6.53;;;5.05;;
25129;SDS011;13308;50.860;13.664;2023-05-10T18:03:56;9.80;;;6.70;;
25129;SDS011;13308;50.860;13.664;2023-05-10T18:06:21;7.20;;;6.47;;
